Time;durP1;ratioP1;P1;durP2;ratioP2;P2;SDS_P1;SDS_P2;PMS_P1;PMS_P2;Temp;Humidity;BMP_temperature;BMP_pressure;BME280_temperature;BME280_humidity;BME280_pressure;Samples;Min_cycle;Max_cycle;Signal;HPM_P1;HPM_P2
2020/12/10 00:01:44;;;;;;;26.15;13.30;;;4.80;97.00;;;;;;5069734;28;20040;-77
2020/12/10 00:04:11;;;;;;;26.15;12.57;;;4.60;97.30;;;;;;5064578;28;20380;-77
2020/12/10 00:06:37;;;;;;;29.58;13.60;;;4.50;97.50;;;;;;5068206;28;20464;-78
2020/12/10 00:09:04;;;;;;;35.13;13.73;;;4.50;97.70;;;;;;5068449;28;20483;-77
2020/12/10 00:11:32;;;;;;;23.85;12.48;;;4.50;98.00;;;;;;5060573;28;20045;-78
2020/12/10 00:13:59;;;;;;;24.83;12.90;;;4.60;97.90;;;;;;5061099;28;20094;-78
2020/12/10 00:16:25;;;;;;;27.02;13.13;;;4.60;98.10;;;;;;5060839;28;20049;-78
2020/12/10 00:18:51;;;;;;;28.63;13.27;;;4.60;98.20;;;;;;5067726;28;20402;-78
2020/12/10 00:21:22;;;;;;;25.77;12.80;;;4.70;98.20;;;;;;5065477;28;20052;-78
2020/12/10 00:23:49;;;;;;;26.95;12.45;;;4.60;98.00;;;;;;5061990;28;20102;-76
2020/12/10 00:26:17;;;;;;;28.83;12.70;;;4.50;98.20;;;;;;5071859;28;20056;-77
2020/12/10 00:28:43;;;;;;;31.92;14.18;;;4.50;98.40;;;;;;5065620;28;20126;-77
2020/12/10 00:31:10;;;;;;;27.55;13.10;;;4.60;98.60;;;;;;5066734;28;20044;-76
2020/12/10 00:33:37;;;;;;;24.98;12.38;;;4.70;98.10;;;;;;5068101;28;20049;-78
2020/12/10 00:36:04;;;;;;;26.00;13.18;;;4.60;97.80;;;;;;5070151;28;20041;-78
2020/12/10 00:38:30;;;;;;;27.17;13.95;;;4.60;98.00;;;;;;5066624;28;20052;-78
2020/12/10 00:40:57;;;;;;;25.58;12.88;;;4.60;97.90;;;;;;5067524;28;20048;-77
2020/12/10 00:43:23;;;;;;;26.35;13.80;;;4.70;98.20;;;;;;5069162;28;20051;-78
2020/12/10 00:45:50;;;;;;;24.50;12.68;;;4.70;98.00;;;;;;5056216;28;20139;-77
2020/12/10 00:48:16;;;;;;;26.30;13.68;;;4.70;98.00;;;;;;5059709;28;20059;-77
2020/12/10 00:50:43;;;;;;;33.00;14.38;;;4.80;98.20;;;;;;5070404;28;20060;-79
2020/12/10 00:53:09;;;;;;;29.33;14.93;;;4.80;98.00;;;;;;5063140;28;20137;-77
2020/12/10 00:55:36;;;;;;;29.35;13.80;;;4.70;98.00;;;;;;5072152;28;20052;-78
2020/12/10 00:58:02;;;;;;;26.23;13.40;;;4.70;98.30;;;;;;5063730;28;20476;-77
2020/12/10 01:00:29;;;;;;;27.38;14.00;;;4.80;98.40;;;;;;5073605;28;20059;-77
2020/12/10 01:02:55;;;;;;;29.73;14.13;;;4.90;98.20;;;;;;5068566;28;20060;-77
2020/12/10 01:05:22;;;;;;;30.00;14.07;;;4.90;98.20;;;;;;5075615;28;20067;-79
2020/12/10 01:07:49;;;;;;;26.10;13.40;;;4.70;98.00;;;;;;5067489;28;20056;-77
2020/12/10 01:10:17;;;;;;;27.55;13.48;;;4.90;98.30;;;;;;5068707;28;20040;-77
2020/12/10 01:12:44;;;;;;;25.33;12.40;;;5.00;98.10;;;;;;5070098;28;20051;-78
2020/12/10 01:15:13;;;;;;;31.67;15.00;;;4.90;97.70;;;;;;5070943;28;20326;-78
2020/12/10 01:17:42;;;;;;;26.55;13.38;;;4.80;98.00;;;;;;5067125;28;20048;-78
2020/12/10 01:20:10;;;;;;;26.90;13.87;;;4.70;98.00;;;;;;5070498;28;20117;-79
2020/12/10 01:22:37;;;;;;;33.17;14.52;;;4.70;98.20;;;;;;5068311;28;20463;-78
2020/12/10 01:25:05;;;;;;;27.13;13.57;;;4.70;98.30;;;;;;5077079;28;20449;-76
2020/12/10 01:27:33;;;;;;;34.30;13.85;;;4.50;98.40;;;;;;5072295;28;20494;-77
2020/12/10 01:29:59;;;;;;;28.25;13.52;;;4.60;98.50;;;;;;5069365;28;20814;-79
2020/12/10 01:32:26;;;;;;;29.75;14.63;;;4.50;98.30;;;;;;5067263;28;20055;-77
2020/12/10 01:34:53;;;;;;;28.55;14.32;;;4.50;98.50;;;;;;5066196;28;20044;-76
2020/12/10 01:37:20;;;;;;;29.05;13.98;;;4.50;98.40;;;;;;5068058;28;20044;-78
2020/12/10 01:39:46;;;;;;;29.08;13.10;;;4.50;98.20;;;;;;5071155;28;20431;-78
2020/12/10 01:42:13;;;;;;;28.35;13.98;;;4.40;98.20;;;;;;5087664;28;20061;-77
2020/12/10 01:44:40;;;;;;;31.67;13.77;;;4.40;98.20;;;;;;5081760;28;20055;-78
2020/12/10 01:47:07;;;;;;;31.98;14.23;;;4.50;98.40;;;;;;5066235;28;20053;-77
2020/12/10 01:49:36;;;;;;;29.33;14.27;;;4.50;98.40;;;;;;5062211;28;20052;-76
2020/12/10 01:52:04;;;;;;;28.00;13.70;;;4.60;98.30;;;;;;5068595;28;20041;-77
2020/12/10 01:54:32;;;;;;;24.75;13.48;;;4.50;98.10;;;;;;5071597;28;20487;-78
2020/12/10 01:56:59;;;;;;;30.13;12.93;;;4.50;98.00;;;;;;5077146;28;20063;-79
2020/12/10 01:59:25;;;;;;;28.10;12.20;;;4.60;98.00;;;;;;5068339;28;20075;-78
2020/12/10 02:01:55;;;;;;;25.13;12.27;;;4.60;98.10;;;;;;5066834;28;20052;-77
2020/12/10 02:04:33;;;;;;;23.23;11.93;;;4.60;98.00;;;;;;5070780;28;20048;-77
2020/12/10 02:07:01;;;;;;;23.25;10.95;;;4.60;98.00;;;;;;5063704;28;20052;-78
2020/12/10 02:09:27;;;;;;;17.83;8.25;;;4.60;98.00;;;;;;5069669;28;20079;-76
2020/12/10 02:11:54;;;;;;;17.23;8.93;;;4.60;97.70;;;;;;5070888;28;20047;-77
2020/12/10 02:14:21;;;;;;;17.10;8.77;;;4.60;97.60;;;;;;5075149;28;20063;-79
2020/12/10 02:16:55;;;;;;;17.23;9.02;;;4.60;97.70;;;;;;5086905;28;20434;-78
2020/12/10 02:19:21;;;;;;;17.65;8.82;;;4.70;97.70;;;;;;5069962;28;20045;-78
2020/12/10 02:21:48;;;;;;;18.70;8.55;;;4.70;97.50;;;;;;5063040;28;20506;-77
2020/12/10 02:24:15;;;;;;;18.00;7.95;;;4.60;97.70;;;;;;5069337;28;20146;-78
2020/12/10 02:26:42;;;;;;;13.60;7.72;;;4.50;97.70;;;;;;5069055;28;20048;-77
2020/12/10 02:29:09;;;;;;;20.10;9.07;;;4.60;97.80;;;;;;5077751;28;20045;-77
2020/12/10 02:31:36;;;;;;;13.52;7.50;;;4.60;97.60;;;;;;5067425;28;20045;-78
2020/12/10 02:34:07;;;;;;;15.27;8.05;;;4.60;97.70;;;;;;5068542;27;20212;-77
2020/12/10 02:36:35;;;;;;;16.23;7.90;;;4.70;97.70;;;;;;5066809;28;20052;-78
2020/12/10 02:39:04;;;;;;;16.88;8.10;;;4.60;97.80;;;;;;5071583;28;20147;-77
2020/12/10 02:41:30;;;;;;;15.93;7.97;;;4.60;97.70;;;;;;5079712;28;20471;-77
2020/12/10 02:43:57;;;;;;;15.40;7.80;;;4.70;98.00;;;;;;5066361;28;20055;-77
2020/12/10 02:46:23;;;;;;;18.90;9.10;;;4.70;97.60;;;;;;5074103;28;20048;-77
2020/12/10 02:48:50;;;;;;;17.25;7.93;;;4.70;97.70;;;;;;5066267;28;20044;-77
2020/12/10 02:51:17;;;;;;;23.75;10.68;;;4.70;98.00;;;;;;5061407;28;20047;-77
2020/12/10 02:53:44;;;;;;;21.23;11.02;;;4.70;98.00;;;;;;5066064;28;20487;-79
2020/12/10 02:56:12;;;;;;;28.15;12.73;;;4.70;98.40;;;;;;5067439;28;20045;-78
2020/12/10 02:58:39;;;;;;;28.52;12.80;;;4.80;98.70;;;;;;5066845;28;20044;-77
2020/12/10 03:01:09;;;;;;;26.63;11.85;;;4.70;98.50;;;;;;5070049;28;20072;-78
2020/12/10 03:03:36;;;;;;;29.75;13.55;;;4.80;98.60;;;;;;5069166;28;20060;-79
2020/12/10 03:06:07;;;;;;;27.13;13.20;;;4.60;98.70;;;;;;5078714;28;20407;-77
2020/12/10 03:08:35;;;;;;;26.33;12.50;;;4.60;98.80;;;;;;5066815;28;20056;-78
2020/12/10 03:11:02;;;;;;;29.50;13.55;;;4.60;98.80;;;;;;5068335;28;20044;-77
2020/12/10 03:13:29;;;;;;;28.27;13.10;;;4.50;98.80;;;;;;5063839;28;20384;-77
2020/12/10 03:15:56;;;;;;;29.88;13.60;;;4.40;99.00;;;;;;5069604;28;20121;-77
2020/12/10 03:18:25;;;;;;;27.80;13.60;;;4.30;99.30;;;;;;5076947;28;20388;-77
2020/12/10 03:20:53;;;;;;;30.02;14.65;;;4.30;99.50;;;;;;5072666;28;20047;-77
2020/12/10 03:23:19;;;;;;;26.83;12.98;;;4.40;99.60;;;;;;5067886;28;20048;-76
2020/12/10 03:25:46;;;;;;;28.95;13.07;;;4.40;99.60;;;;;;5058406;28;20049;-77
2020/12/10 03:28:12;;;;;;;27.10;12.55;;;4.50;99.60;;;;;;5064249;28;20041;-78
2020/12/10 03:30:39;;;;;;;26.10;11.95;;;4.60;99.60;;;;;;5068756;28;20040;-77
2020/12/10 03:33:06;;;;;;;27.48;12.38;;;4.40;99.40;;;;;;5069538;28;20059;-78
2020/12/10 03:35:32;;;;;;;26.88;12.45;;;4.40;99.80;;;;;;5069840;28;20048;-78
2020/12/10 03:38:00;;;;;;;26.98;12.85;;;4.50;99.80;;;;;;5069472;28;20051;-77
2020/12/10 03:40:28;;;;;;;29.30;13.13;;;4.60;99.70;;;;;;5072283;28;20101;-78
2020/12/10 03:42:54;;;;;;;29.83;12.63;;;4.60;99.60;;;;;;5061665;28;20045;-77
2020/12/10 03:45:21;;;;;;;26.23;12.32;;;4.60;99.80;;;;;;5068749;28;20419;-77
2020/12/10 03:47:47;;;;;;;24.13;11.80;;;4.60;99.50;;;;;;5099590;28;20060;-78
2020/12/10 03:50:14;;;;;;;28.50;12.93;;;4.50;99.40;;;;;;5066847;28;20457;-77
2020/12/10 03:52:40;;;;;;;27.15;13.00;;;4.50;99.50;;;;;;5081429;28;20044;-78
2020/12/10 03:55:07;;;;;;;26.65;13.93;;;4.50;99.60;;;;;;5082909;28;20375;-76
2020/12/10 03:57:33;;;;;;;27.88;12.82;;;4.30;99.60;;;;;;5063989;28;20041;-77
2020/12/10 04:00:00;;;;;;;26.20;12.52;;;4.20;99.90;;;;;;5063816;28;20052;-77
2020/12/10 04:02:26;;;;;;;32.38;13.52;;;4.40;99.90;;;;;;5065952;28;20056;-77
2020/12/10 04:04:53;;;;;;;26.40;12.32;;;4.40;99.90;;;;;;5089315;28;20054;-77
2020/12/10 04:07:20;;;;;;;26.33;12.73;;;4.40;99.90;;;;;;5069018;28;20392;-78
2020/12/10 04:09:46;;;;;;;26.85;12.73;;;4.30;99.90;;;;;;5063851;28;20072;-77
2020/12/10 04:12:12;;;;;;;28.55;12.15;;;4.30;99.90;;;;;;5068857;28;20376;-76
2020/12/10 04:14:39;;;;;;;28.60;12.90;;;4.50;99.90;;;;;;5059611;28;20041;-77
2020/12/10 04:17:05;;;;;;;25.50;12.30;;;4.40;99.60;;;;;;5066367;28;20052;-79
2020/12/10 04:19:32;;;;;;;27.67;12.90;;;4.30;99.60;;;;;;5070863;28;20449;-77
2020/12/10 04:21:59;;;;;;;23.20;11.88;;;4.20;99.70;;;;;;5078505;28;20056;-78
2020/12/10 04:24:25;;;;;;;26.65;12.57;;;4.40;99.90;;;;;;5071192;28;20053;-76
2020/12/10 04:26:52;;;;;;;27.35;12.30;;;4.50;99.50;;;;;;5069819;28;20048;-76
2020/12/10 04:29:18;;;;;;;26.15;11.95;;;4.40;99.70;;;;;;5069029;28;20045;-76
2020/12/10 04:31:45;;;;;;;26.95;12.50;;;4.50;99.50;;;;;;5066851;28;20052;-77
2020/12/10 04:34:11;;;;;;;27.60;12.48;;;4.50;99.60;;;;;;5070765;28;20049;-77
2020/12/10 04:36:39;;;;;;;28.67;12.23;;;4.50;99.40;;;;;;5072983;28;20095;-77
2020/12/10 04:39:05;;;;;;;24.55;11.93;;;4.50;99.70;;;;;;5070212;28;20303;-77
2020/12/10 04:41:35;;;;;;;27.58;13.10;;;4.40;99.80;;;;;;5078238;28;20061;-78
2020/12/10 04:44:02;;;;;;;25.52;12.15;;;4.40;99.70;;;;;;5103674;27;20044;-77
2020/12/10 04:46:29;;;;;;;27.60;12.02;;;4.40;99.90;;;;;;5083565;28;20044;-76
2020/12/10 04:48:57;;;;;;;31.08;13.02;;;4.40;99.90;;;;;;5072383;28;20041;-77
2020/12/10 04:51:25;;;;;;;25.40;12.95;;;4.40;99.90;;;;;;5073303;28;20388;-77
2020/12/10 04:53:53;;;;;;;25.10;11.48;;;4.20;99.90;;;;;;5078546;28;20040;-76
2020/12/10 04:56:20;;;;;;;26.63;12.95;;;4.40;99.90;;;;;;5071872;28;20052;-77
2020/12/10 04:58:47;;;;;;;26.45;11.88;;;4.50;99.90;;;;;;5055689;28;20057;-77
2020/12/10 05:01:16;;;;;;;27.40;13.13;;;4.50;99.90;;;;;;5072321;28;20064;-77
2020/12/10 05:03:46;;;;;;;24.20;12.70;;;4.40;99.80;;;;;;5077768;28;20052;-77
2020/12/10 05:06:14;;;;;;;22.33;11.70;;;4.40;99.90;;;;;;5077150;28;20396;-78
2020/12/10 05:08:42;;;;;;;25.42;12.55;;;4.40;99.90;;;;;;5070110;28;20041;-76
2020/12/10 05:11:09;;;;;;;28.10;12.52;;;4.50;99.90;;;;;;5106570;28;20068;-76
2020/12/10 05:13:36;;;;;;;25.50;11.77;;;4.50;99.80;;;;;;5065527;28;20052;-76
2020/12/10 05:16:04;;;;;;;28.80;13.20;;;4.40;99.90;;;;;;5069439;28;20052;-76
2020/12/10 05:18:30;;;;;;;31.30;13.63;;;4.50;99.90;;;;;;5070873;28;20049;-76
2020/12/10 05:20:58;;;;;;;23.63;12.15;;;4.40;99.90;;;;;;5075138;28;20048;-77
2020/12/10 05:23:42;;;;;;;25.55;11.98;;;4.40;99.90;;;;;;5076125;28;20380;-76
2020/12/10 05:26:10;;;;;;;25.63;12.43;;;4.50;99.90;;;;;;5062503;28;20400;-77
2020/12/10 05:28:41;;;;;;;26.35;12.63;;;4.30;99.90;;;;;;5068767;28;20041;-76
2020/12/10 05:31:19;;;;;;;27.55;12.40;;;4.40;99.90;;;;;;5069468;28;20475;-76
2020/12/10 05:33:56;;;;;;;31.08;13.80;;;4.30;99.90;;;;;;5070385;28;20057;-77
2020/12/10 05:36:23;;;;;;;25.98;12.15;;;4.30;99.90;;;;;;5069050;28;20460;-77
2020/12/10 05:39:13;;;;;;;28.00;13.40;;;4.20;99.90;;;;;;5071822;28;20052;-76
2020/12/10 05:41:44;;;;;;;25.27;12.40;;;4.30;99.90;;;;;;5068557;28;20040;-77
2020/12/10 05:44:19;;;;;;;29.45;12.82;;;4.40;99.90;;;;;;5065076;28;20373;-76
2020/12/10 05:46:48;;;;;;;30.38;13.77;;;4.40;99.90;;;;;;5061779;28;20056;-77
2020/12/10 05:49:15;;;;;;;26.33;12.38;;;4.30;99.90;;;;;;5068350;28;20048;-77
2020/12/10 05:51:46;;;;;;;29.80;14.10;;;4.40;99.90;;;;;;5074888;28;20424;-77
2020/12/10 05:54:15;;;;;;;29.63;12.82;;;4.40;99.90;;;;;;5073476;28;20365;-77
2020/12/10 05:56:55;;;;;;;25.75;12.63;;;4.50;99.90;;;;;;5072549;28;20053;-77
2020/12/10 05:59:28;;;;;;;26.02;13.10;;;4.60;99.90;;;;;;5069593;28;20051;-77
2020/12/10 06:02:02;;;;;;;28.58;11.98;;;4.60;99.70;;;;;;5069665;28;20094;-77
2020/12/10 06:04:29;;;;;;;26.15;13.55;;;4.50;99.80;;;;;;5070604;28;20048;-76
2020/12/10 06:07:00;;;;;;;28.38;12.35;;;4.40;99.90;;;;;;5067346;28;20060;-77
2020/12/10 06:09:28;;;;;;;34.05;14.45;;;4.30;99.90;;;;;;5067888;28;20049;-77
2020/12/10 06:12:05;;;;;;;32.92;14.90;;;4.30;99.90;;;;;;5065393;28;20045;-77
2020/12/10 06:14:33;;;;;;;32.70;16.05;;;4.30;99.90;;;;;;5069629;28;20044;-78
2020/12/10 06:17:10;;;;;;;33.70;15.60;;;4.10;99.90;;;;;;5071211;28;20140;-78
2020/12/10 06:19:38;;;;;;;29.90;14.48;;;4.00;99.90;;;;;;5077175;28;20074;-77
2020/12/10 06:22:26;;;;;;;34.72;15.27;;;4.10;99.90;;;;;;5077493;28;20463;-77
2020/12/10 06:24:54;;;;;;;35.90;16.23;;;4.10;99.90;;;;;;5072515;28;20072;-78
2020/12/10 06:27:31;;;;;;;33.60;14.40;;;4.10;99.90;;;;;;5076980;28;20059;-77
2020/12/10 06:30:21;;;;;;;28.98;14.13;;;4.10;99.90;;;;;;5082938;28;20476;-78
2020/12/10 06:32:49;;;;;;;29.40;13.57;;;4.10;99.90;;;;;;5087148;28;20099;-78
2020/12/10 06:35:35;;;;;;;33.90;14.35;;;4.10;99.90;;;;;;5068194;28;20054;-77
2020/12/10 06:38:06;;;;;;;32.25;14.63;;;4.10;99.90;;;;;;5070591;28;20480;-77
2020/12/10 06:40:36;;;;;;;30.40;13.95;;;4.20;99.90;;;;;;5069650;28;20103;-77
2020/12/10 06:43:04;;;;;;;27.67;13.95;;;4.20;99.90;;;;;;5057800;28;20419;-76
2020/12/10 06:45:33;;;;;;;28.48;12.73;;;4.20;99.90;;;;;;5075443;28;20052;-77
2020/12/10 06:48:05;;;;;;;30.13;13.77;;;4.10;99.90;;;;;;5076131;28;20498;-76
2020/12/10 06:50:37;;;;;;;28.67;12.57;;;4.10;99.90;;;;;;5070104;28;20044;-77
2020/12/10 06:53:11;;;;;;;24.08;12.57;;;4.20;99.90;;;;;;5070530;28;20056;-76
2020/12/10 06:55:56;;;;;;;27.20;12.98;;;4.10;99.90;;;;;;5071892;28;20968;-76
2020/12/10 06:58:44;;;;;;;30.75;13.40;;;4.10;99.70;;;;;;5085828;28;20060;-76
2020/12/10 07:01:30;;;;;;;31.80;13.15;;;4.10;99.90;;;;;;5072776;28;20052;-77
2020/12/10 07:07:11;;;;;;;26.00;12.23;;;4.10;99.90;;;;;;5081027;28;20063;-76
2020/12/10 07:09:48;;;;;;;34.78;13.88;;;4.20;99.90;;;;;;5071271;28;20063;-77
2020/12/10 07:12:19;;;;;;;32.35;14.43;;;4.10;99.90;;;;;;5071338;28;20052;-76
2020/12/10 07:14:45;;;;;;;28.02;14.38;;;4.20;99.90;;;;;;5080360;28;20420;-77
2020/12/10 07:17:12;;;;;;;29.13;13.82;;;4.20;99.90;;;;;;5073360;28;20056;-77
2020/12/10 07:19:40;;;;;;;29.92;14.75;;;4.30;99.90;;;;;;5065994;28;20055;-78
2020/12/10 07:22:10;;;;;;;27.05;12.95;;;4.30;99.90;;;;;;5068416;28;20151;-79
2020/12/10 07:24:37;;;;;;;32.28;13.52;;;4.30;99.90;;;;;;5064345;28;20404;-78
2020/12/10 07:27:04;;;;;;;29.42;14.02;;;4.30;99.90;;;;;;5077983;28;20051;-78
2020/12/10 07:29:30;;;;;;;31.58;14.25;;;4.10;99.90;;;;;;5068637;28;20044;-78
2020/12/10 07:31:57;;;;;;;27.08;12.82;;;4.10;99.90;;;;;;5070749;28;20047;-77
2020/12/10 07:34:23;;;;;;;28.80;12.10;;;4.00;99.90;;;;;;5070882;28;20036;-78
2020/12/10 07:36:53;;;;;;;28.85;13.15;;;4.10;99.90;;;;;;5067394;28;20476;-77
2020/12/10 07:39:30;;;;;;;31.10;14.50;;;4.20;99.90;;;;;;5075604;28;20057;-77
2020/12/10 07:41:57;;;;;;;29.10;13.23;;;4.10;99.90;;;;;;5103338;28;20060;-77
2020/12/10 07:44:25;;;;;;;27.73;13.73;;;4.20;99.90;;;;;;5070447;28;20044;-77
2020/12/10 07:46:52;;;;;;;28.08;13.50;;;4.20;99.70;;;;;;5077735;28;20074;-77
2020/12/10 07:49:31;;;;;;;30.70;12.85;;;4.20;99.60;;;;;;5070443;28;20052;-77
2020/12/10 07:52:09;;;;;;;30.40;12.90;;;4.20;99.50;;;;;;5059359;28;20052;-77
2020/12/10 07:54:51;;;;;;;29.90;12.40;;;4.20;99.30;;;;;;5066111;28;20056;-77
2020/12/10 07:57:31;;;;;;;24.55;12.65;;;4.10;99.00;;;;;;5081535;28;20056;-77
2020/12/10 08:00:04;;;;;;;23.35;12.60;;;4.20;99.00;;;;;;5068519;28;20041;-76
2020/12/10 08:02:46;;;;;;;31.48;13.93;;;4.10;99.00;;;;;;5082656;28;20052;-78
2020/12/10 08:05:15;;;;;;;29.38;12.82;;;4.20;99.10;;;;;;5067756;28;20045;-77
2020/12/10 08:07:52;;;;;;;33.17;15.23;;;4.20;99.10;;;;;;5082683;28;20044;-76
2020/12/10 08:10:27;;;;;;;35.30;15.68;;;4.20;98.70;;;;;;5073546;28;20055;-77
2020/12/10 08:13:09;;;;;;;34.95;15.43;;;4.30;98.50;;;;;;5068394;28;20488;-77
2020/12/10 08:15:36;;;;;;;36.13;15.93;;;4.20;97.90;;;;;;5066573;28;20188;-77
2020/12/10 08:18:08;;;;;;;33.28;15.30;;;4.10;97.70;;;;;;5069624;28;20040;-77
2020/12/10 08:20:36;;;;;;;31.67;16.25;;;4.10;97.50;;;;;;5070811;28;20051;-76
2020/12/10 08:23:03;;;;;;;35.30;14.98;;;4.10;97.30;;;;;;5059065;28;20060;-77
2020/12/10 08:25:29;;;;;;;31.80;15.88;;;4.20;97.30;;;;;;5068736;28;20044;-77
2020/12/10 08:27:56;;;;;;;29.55;15.00;;;4.20;97.00;;;;;;5071734;28;20045;-77
2020/12/10 08:30:23;;;;;;;32.03;15.75;;;4.10;97.00;;;;;;5067161;28;20391;-77
2020/12/10 08:32:53;;;;;;;32.17;15.35;;;4.10;97.00;;;;;;5063883;28;20045;-78
2020/12/10 08:35:20;;;;;;;;;;;4.30;97.20;;;;;;5053954;28;20059;-77
2020/12/10 08:37:47;;;;;;;23.15;11.15;;;4.40;96.90;;;;;;5056392;28;19928;-80
2020/12/10 08:40:26;;;;;;;28.92;11.15;;;4.50;96.50;;;;;;5068231;28;20071;-79
2020/12/10 08:42:54;;;;;;;29.58;13.07;;;4.30;96.20;;;;;;5069128;28;20136;-80
2020/12/10 08:45:43;;;;;;;41.28;17.48;;;4.30;96.50;;;;;;5064754;28;20056;-79
2020/12/10 08:48:12;;;;;;;42.90;18.10;;;4.30;96.30;;;;;;5066745;28;20440;-79
2020/12/10 08:50:50;;;;;;;38.63;17.95;;;4.30;96.40;;;;;;5064982;28;20056;-80
2020/12/10 08:53:16;;;;;;;38.53;18.00;;;4.20;96.00;;;;;;5060427;28;20048;-74
2020/12/10 08:55:51;;;;;;;45.72;21.08;;;4.20;96.20;;;;;;5065246;28;20048;-77
2020/12/10 08:58:22;;;;;;;39.35;18.40;;;4.20;96.30;;;;;;5057085;28;20056;-76
2020/12/10 09:00:52;;;;;;;42.88;19.73;;;4.20;96.20;;;;;;5068033;28;20128;-74
2020/12/10 09:03:18;;;;;;;38.55;18.52;;;4.30;96.00;;;;;;5066006;28;20114;-74
2020/12/10 09:05:45;;;;;;;39.97;18.70;;;4.30;96.10;;;;;;5066248;28;20052;-70
2020/12/10 09:08:13;;;;;;;30.38;15.02;;;4.30;96.30;;;;;;5068198;28;20056;-72
2020/12/10 09:10:40;;;;;;;39.97;15.57;;;4.30;96.00;;;;;;5068220;28;20088;-78
2020/12/10 09:13:08;;;;;;;35.38;16.58;;;4.30;95.90;;;;;;5058587;28;20407;-83
2020/12/10 09:15:42;;;;;;;38.65;18.08;;;4.30;96.00;;;;;;5064017;28;20400;-84
2020/12/10 09:18:09;;;;;;;39.80;17.77;;;4.30;95.80;;;;;;5097133;27;20048;-80
2020/12/10 09:20:36;;;;;;;40.38;19.23;;;4.40;95.70;;;;;;5067185;28;20071;-79
2020/12/10 09:23:03;;;;;;;41.00;20.05;;;4.30;95.70;;;;;;5048501;28;20079;-79
2020/12/10 09:25:30;;;;;;;41.08;19.70;;;4.30;95.70;;;;;;5049766;28;20068;-79
2020/12/10 09:27:56;;;;;;;42.03;19.40;;;4.30;96.00;;;;;;5050318;28;20063;-79
2020/12/10 09:30:23;;;;;;;37.97;18.13;;;4.30;95.80;;;;;;5064997;28;20064;-77
2020/12/10 09:32:50;;;;;;;42.85;19.58;;;4.40;95.60;;;;;;5050500;28;20044;-80
2020/12/10 09:35:17;;;;;;;45.83;19.52;;;4.30;95.50;;;;;;5050789;28;20057;-80
2020/12/10 09:37:43;;;;;;;45.40;20.60;;;4.30;95.60;;;;;;5050228;28;20044;-79
2020/12/10 09:40:12;;;;;;;46.60;22.17;;;4.40;95.50;;;;;;5051799;28;20057;-76
2020/12/10 09:42:42;;;;;;;44.95;20.30;;;4.30;95.30;;;;;;5049510;28;20060;-77
2020/12/10 09:45:14;;;;;;;46.42;21.48;;;4.40;95.60;;;;;;5052830;28;20059;-79
2020/12/10 09:47:42;;;;;;;41.05;19.60;;;4.40;95.30;;;;;;5046316;28;20587;-80
2020/12/10 09:50:18;;;;;;;44.95;20.42;;;4.40;95.00;;;;;;5052392;28;20677;-81
2020/12/10 09:53:06;;;;;;;39.88;18.95;;;4.40;95.00;;;;;;5052984;28;20041;-78
2020/12/10 09:58:35;;;;;;;34.70;16.58;;;4.50;95.10;;;;;;5037155;28;20045;-80
2020/12/10 10:01:01;;;;;;;31.13;14.73;;;4.60;94.70;;;;;;5049744;28;20041;-80
2020/12/10 10:03:28;;;;;;;34.42;16.63;;;4.60;94.40;;;;;;5058429;28;20041;-80
2020/12/10 10:05:56;;;;;;;34.83;15.30;;;4.60;94.40;;;;;;5065877;28;20135;-79
2020/12/10 10:08:24;;;;;;;32.58;16.85;;;4.70;94.50;;;;;;5067055;28;20049;-80
2020/12/10 10:10:51;;;;;;;33.90;15.80;;;4.70;94.50;;;;;;5058966;28;20076;-80
2020/12/10 10:13:17;;;;;;;31.83;16.20;;;4.40;94.70;;;;;;5057921;28;20057;-79
2020/12/10 10:15:45;;;;;;;36.75;17.10;;;4.40;94.80;;;;;;5050364;28;20052;-77
2020/12/10 10:18:14;;;;;;;33.38;16.55;;;4.30;94.80;;;;;;5050774;28;20048;-80
2020/12/10 10:20:41;;;;;;;29.00;14.90;;;4.40;94.90;;;;;;5049740;28;20420;-78
2020/12/10 10:23:08;;;;;;;30.20;14.80;;;4.40;94.60;;;;;;5052453;28;20605;-77
2020/12/10 10:25:34;;;;;;;31.52;15.25;;;4.40;94.80;;;;;;5069898;28;20052;-77
2020/12/10 10:28:03;;;;;;;26.77;14.35;;;4.40;94.70;;;;;;5052676;28;20621;-78
2020/12/10 10:30:30;;;;;;;31.02;15.75;;;4.30;94.60;;;;;;5051101;28;20045;-79
2020/12/10 10:32:56;;;;;;;32.60;15.02;;;4.40;94.70;;;;;;5053888;28;20057;-78
2020/12/10 10:35:24;;;;;;;30.05;15.32;;;4.50;94.70;;;;;;5053091;28;20049;-79
2020/12/10 10:37:52;;;;;;;34.30;14.35;;;4.50;94.50;;;;;;5067553;28;20045;-79
2020/12/10 10:40:19;;;;;;;27.38;13.98;;;4.60;94.80;;;;;;5059346;28;20049;-81
2020/12/10 10:42:46;;;;;;;27.23;13.45;;;4.70;94.60;;;;;;5051337;28;20057;-81
2020/12/10 10:45:13;;;;;;;30.38;13.68;;;4.60;94.20;;;;;;5069967;28;20048;-82
2020/12/10 10:47:39;;;;;;;27.98;14.30;;;4.70;94.20;;;;;;5052787;28;20048;-81
2020/12/10 10:50:06;;;;;;;28.02;14.32;;;4.90;94.20;;;;;;5054948;28;20140;-82
2020/12/10 10:52:32;;;;;;;25.42;13.32;;;5.00;94.20;;;;;;5051267;28;20044;-82
2020/12/10 10:54:59;;;;;;;30.45;12.98;;;4.90;93.90;;;;;;5056079;28;20052;-80
2020/12/10 10:57:26;;;;;;;28.00;13.35;;;4.60;94.20;;;;;;5053339;28;20050;-81
2020/12/10 10:59:54;;;;;;;29.38;14.40;;;4.70;94.00;;;;;;5055307;28;20138;-81
2020/12/10 11:02:21;;;;;;;25.85;12.57;;;4.60;94.00;;;;;;5057213;28;20053;-82
2020/12/10 11:04:51;;;;;;;24.35;11.93;;;4.60;94.30;;;;;;5055359;28;20057;-80
2020/12/10 11:07:18;;;;;;;23.13;12.10;;;4.80;93.80;;;;;;5055533;28;20415;-80
2020/12/10 11:09:45;;;;;;;26.17;13.48;;;4.80;93.70;;;;;;5059410;28;20405;-81
2020/12/10 11:12:13;;;;;;;25.48;13.20;;;4.90;93.70;;;;;;5054947;28;20075;-81
2020/12/10 11:14:40;;;;;;;35.95;17.00;;;4.70;94.10;;;;;;5055539;28;20076;-81
2020/12/10 11:17:08;;;;;;;27.42;13.60;;;4.70;94.00;;;;;;5067690;28;20044;-81
2020/12/10 11:19:35;;;;;;;26.95;13.10;;;4.80;94.30;;;;;;5060895;28;20052;-82
2020/12/10 11:22:01;;;;;;;26.15;11.85;;;4.70;94.00;;;;;;5056463;28;20164;-81
2020/12/10 11:24:28;;;;;;;27.70;13.25;;;4.90;94.00;;;;;;5069493;28;20056;-80
2020/12/10 11:26:56;;;;;;;24.30;11.05;;;4.90;94.20;;;;;;5054943;28;20048;-82
2020/12/10 11:29:23;;;;;;;20.73;11.38;;;4.80;93.90;;;;;;5052572;28;20048;-80
2020/12/10 11:31:52;;;;;;;24.27;11.63;;;4.90;93.70;;;;;;5059894;28;20127;-81
2020/12/10 11:34:19;;;;;;;21.02;9.73;;;4.90;94.00;;;;;;5071289;28;20048;-81
2020/12/10 11:36:46;;;;;;;18.83;10.32;;;4.90;93.60;;;;;;5055269;28;20559;-82
2020/12/10 11:39:13;;;;;;;20.98;9.90;;;4.80;94.20;;;;;;5058465;28;20040;-81
2020/12/10 11:41:39;;;;;;;16.83;8.18;;;4.90;94.10;;;;;;5055048;28;20060;-88
2020/12/10 11:44:06;;;;;;;12.18;7.15;;;4.80;93.80;;;;;;5060710;28;20056;-91
2020/12/10 11:46:32;;;;;;;15.38;8.27;;;4.80;93.80;;;;;;5061407;28;20092;-89
2020/12/10 11:49:00;;;;;;;19.38;7.93;;;4.70;93.70;;;;;;5055198;28;20407;-90
2020/12/10 11:51:32;;;;;;;16.42;7.35;;;4.70;94.00;;;;;;5056660;28;20048;-88
2020/12/10 11:54:02;;;;;;;15.65;8.63;;;4.90;94.10;;;;;;5090516;28;20094;-87
2020/12/10 11:56:30;;;;;;;11.27;6.32;;;4.90;93.60;;;;;;5052695;28;20055;-84
2020/12/10 11:58:57;;;;;;;20.05;7.32;;;4.70;93.40;;;;;;5052686;28;20049;-87
2020/12/10 12:01:24;;;;;;;33.78;14.55;;;4.60;93.70;;;;;;5060411;28;20044;-85
2020/12/10 12:03:50;;;;;;;14.32;7.45;;;4.50;93.90;;;;;;5055426;28;20059;-85
2020/12/10 12:06:18;;;;;;;16.02;7.65;;;4.60;94.00;;;;;;5070016;28;20064;-83
2020/12/10 12:08:44;;;;;;;10.57;5.50;;;4.60;94.20;;;;;;5067531;28;20052;-89
2020/12/10 12:11:11;;;;;;;17.27;7.57;;;4.70;93.70;;;;;;5049698;28;21154;-79
2020/12/10 12:13:37;;;;;;;13.27;6.45;;;4.80;93.90;;;;;;5053510;28;20052;-81
2020/12/10 12:16:05;;;;;;;11.77;6.53;;;4.70;93.70;;;;;;5052675;28;20052;-79
2020/12/10 12:18:32;;;;;;;16.30;6.97;;;4.80;93.80;;;;;;5057820;28;20411;-79
2020/12/10 12:20:59;;;;;;;13.57;6.95;;;4.90;93.80;;;;;;5052118;28;20060;-80
2020/12/10 12:23:25;;;;;;;13.23;7.13;;;4.90;93.50;;;;;;5064228;28;20048;-80
2020/12/10 12:25:52;;;;;;;16.67;7.85;;;4.90;93.60;;;;;;5073772;28;20156;-79
2020/12/10 12:28:18;;;;;;;12.88;6.35;;;4.80;93.70;;;;;;5076855;28;20060;-79
2020/12/10 12:30:46;;;;;;;15.93;6.57;;;4.80;93.70;;;;;;5062511;28;20060;-80
2020/12/10 12:33:12;;;;;;;11.27;5.90;;;4.80;93.80;;;;;;5062439;28;20062;-80
2020/12/10 12:35:39;;;;;;;13.85;6.28;;;4.90;93.60;;;;;;5066409;28;20048;-78
2020/12/10 12:38:06;;;;;;;14.25;6.70;;;5.00;93.60;;;;;;5063085;28;20051;-79
2020/12/10 12:40:32;;;;;;;10.73;6.68;;;5.20;93.60;;;;;;5071080;28;20048;-79
2020/12/10 12:43:00;;;;;;;13.13;6.47;;;5.10;93.20;;;;;;5072070;28;20473;-79
2020/12/10 12:45:28;;;;;;;15.75;7.38;;;5.00;93.20;;;;;;5064383;28;20103;-78
2020/12/10 12:47:56;;;;;;;11.98;6.68;;;4.90;93.40;;;;;;5067116;28;20060;-80
2020/12/10 12:50:23;;;;;;;15.60;7.45;;;4.90;93.50;;;;;;5070203;28;20056;-79
2020/12/10 12:52:50;;;;;;;14.27;7.20;;;5.00;93.70;;;;;;5068363;28;20201;-79